sensor_id;sensor_type;location;lat;lon;timestamp;pressure;altitude;pressure_sealevel;temperature;humidity
8229;BME280;4155;50.118;8.714;2022-09-17T00:01:39;99655.13;;;10.70;81.44
8229;BME280;4155;50.118;8.714;2022-09-17T00:04:08;99662.34;;;10.69;81.11
8229;BME280;4155;50.118;8.714;2022-09-17T00:06:36;99662.97;;;10.78;81.23
8229;BME280;4155;50.118;8.714;2022-09-17T00:09:05;99665.44;;;10.66;81.46
8229;BME280;4155;50.118;8.714;2022-09-17T00:11:36;99673.03;;;10.63;82.12
8229;BME280;4155;50.118;8.714;2022-09-17T00:14:06;99671.41;;;10.62;82.90
8229;BME280;4155;50.118;8.714;2022-09-17T00:16:36;99679.66;;;10.67;81.40
8229;BME280;4155;50.118;8.714;2022-09-17T00:19:07;99672.66;;;10.66;82.00
8229;BME280;4155;50.118;8.714;2022-09-17T00:21:35;99676.97;;;10.73;82.21
8229;BME280;4155;50.118;8.714;2022-09-17T00:24:05;99691.03;;;10.89;81.70
8229;BME280;4155;50.118;8.714;2022-09-17T00:26:34;99689.78;;;10.91;81.85
8229;BME280;4155;50.118;8.714;2022-09-17T00:29:03;99678.44;;;10.96;81.34
8229;BME280;4155;50.118;8.714;2022-09-17T00:31:32;99681.31;;;10.94;80.61
8229;BME280;4155;50.118;8.714;2022-09-17T00:34:01;99673.69;;;10.91;81.15
8229;BME280;4155;50.118;8.714;2022-09-17T00:36:30;99673.88;;;10.90;81.54
8229;BME280;4155;50.118;8.714;2022-09-17T00:39:00;99673.88;;;10.90;81.76
8229;BME280;4155;50.118;8.714;2022-09-17T00:41:31;99675.97;;;10.88;81.68
8229;BME280;4155;50.118;8.714;2022-09-17T00:44:00;99678.84;;;10.80;81.83
8229;BME280;4155;50.118;8.714;2022-09-17T00:46:32;99671.00;;;10.85;81.38
8229;BME280;4155;50.118;8.714;2022-09-17T00:49:05;99676.78;;;10.75;82.11
8229;BME280;4155;50.118;8.714;2022-09-17T00:54:25;99674.31;;;10.80;82.02
8229;BME280;4155;50.118;8.714;2022-09-17T00:56:54;99679.25;;;10.83;81.71
8229;BME280;4155;50.118;8.714;2022-09-17T00:59:25;99678.22;;;10.78;81.87
8229;BME280;4155;50.118;8.714;2022-09-17T01:01:53;99673.69;;;10.78;81.99
8229;BME280;4155;50.118;8.714;2022-09-17T01:04:23;99672.88;;;10.78;81.84
8229;BME280;4155;50.118;8.714;2022-09-17T01:06:59;99681.72;;;10.78;81.53
8229;BME280;4155;50.118;8.714;2022-09-17T01:09:34;99682.34;;;10.80;81.66
8229;BME280;4155;50.118;8.714;2022-09-17T01:12:18;99683.19;;;10.87;81.56
8229;BME280;4155;50.118;8.714;2022-09-17T01:14:59;99681.13;;;10.89;81.30
8229;BME280;4155;50.118;8.714;2022-09-17T01:17:34;99681.13;;;10.76;82.00
8229;BME280;4155;50.118;8.714;2022-09-17T01:20:29;99678.22;;;10.78;81.91
8229;BME280;4155;50.118;8.714;2022-09-17T01:23:31;99680.06;;;10.84;81.59
8229;BME280;4155;50.118;8.714;2022-09-17T01:26:18;99688.75;;;10.92;81.67
8229;BME280;4155;50.118;8.714;2022-09-17T01:28:56;99683.19;;;10.87;81.75
8229;BME280;4155;50.118;8.714;2022-09-17T01:31:32;99691.41;;;10.92;81.96
8229;BME280;4155;50.118;8.714;2022-09-17T01:34:10;99684.63;;;10.90;82.08
8229;BME280;4155;50.118;8.714;2022-09-17T01:36:49;99689.59;;;10.86;81.49
8229;BME280;4155;50.118;8.714;2022-09-17T01:39:28;99689.38;;;10.88;81.90
8229;BME280;4155;50.118;8.714;2022-09-17T01:42:04;99692.25;;;10.86;81.78
8229;BME280;4155;50.118;8.714;2022-09-17T01:44:41;99691.44;;;10.86;81.82
8229;BME280;4155;50.118;8.714;2022-09-17T01:47:18;99691.63;;;10.97;81.98
8229;BME280;4155;50.118;8.714;2022-09-17T01:49:48;99685.84;;;10.94;81.82
8229;BME280;4155;50.118;8.714;2022-09-17T01:52:18;99687.72;;;11.00;82.01
8229;BME280;4155;50.118;8.714;2022-09-17T01:54:48;99695.97;;;10.98;81.40
8229;BME280;4155;50.118;8.714;2022-09-17T01:57:22;99689.56;;;11.06;81.65
8229;BME280;4155;50.118;8.714;2022-09-17T01:59:56;99688.75;;;10.99;81.58
8229;BME280;4155;50.118;8.714;2022-09-17T02:02:29;99688.97;;;10.97;81.63
8229;BME280;4155;50.118;8.714;2022-09-17T02:05:02;99693.50;;;10.90;81.95
8229;BME280;4155;50.118;8.714;2022-09-17T02:07:37;99689.16;;;10.96;81.88
8229;BME280;4155;50.118;8.714;2022-09-17T02:10:10;99695.53;;;11.01;82.28
8229;BME280;4155;50.118;8.714;2022-09-17T02:12:41;99689.38;;;11.08;81.73
8229;BME280;4155;50.118;8.714;2022-09-17T02:15:11;99687.28;;;11.03;82.13
8229;BME280;4155;50.118;8.714;2022-09-17T02:17:45;99693.50;;;10.90;81.99
8229;BME280;4155;50.118;8.714;2022-09-17T02:20:17;99690.41;;;10.87;82.80
8229;BME280;4155;50.118;8.714;2022-09-17T02:22:51;99691.22;;;11.00;81.89
8229;BME280;4155;50.118;8.714;2022-09-17T02:25:26;99691.84;;;10.96;82.09
8229;BME280;4155;50.118;8.714;2022-09-17T02:27:59;99694.94;;;10.99;82.37
8229;BME280;4155;50.118;8.714;2022-09-17T02:30:29;99689.16;;;10.96;81.84
8229;BME280;4155;50.118;8.714;2022-09-17T02:33:00;99702.16;;;10.92;82.65
8229;BME280;4155;50.118;8.714;2022-09-17T02:35:29;99698.84;;;10.84;82.33
8229;BME280;4155;50.118;8.714;2022-09-17T02:37:57;99695.78;;;10.87;82.47
8229;BME280;4155;50.118;8.714;2022-09-17T02:40:28;99695.78;;;11.07;82.81
8229;BME280;4155;50.118;8.714;2022-09-17T02:43:07;99692.88;;;10.88;85.31
8229;BME280;4155;50.118;8.714;2022-09-17T02:45:44;99702.38;;;10.97;85.69
8229;BME280;4155;50.118;8.714;2022-09-17T02:48:42;99694.31;;;10.78;87.20
8229;BME280;4155;50.118;8.714;2022-09-17T02:51:23;99707.72;;;10.78;86.44
8229;BME280;4155;50.118;8.714;2022-09-17T02:54:01;99694.31;;;10.71;87.63
8229;BME280;4155;50.118;8.714;2022-09-17T02:56:42;99697.81;;;10.78;87.65
8229;BME280;4155;50.118;8.714;2022-09-17T02:59:16;99705.66;;;10.80;87.01
8229;BME280;4155;50.118;8.714;2022-09-17T03:01:51;99698.25;;;10.75;87.60
8229;BME280;4155;50.118;8.714;2022-09-17T03:04:23;99695.34;;;10.77;88.13
8229;BME280;4155;50.118;8.714;2022-09-17T03:06:52;99699.66;;;10.71;88.01
8229;BME280;4155;50.118;8.714;2022-09-17T03:09:21;99697.22;;;10.76;88.33
8229;BME280;4155;50.118;8.714;2022-09-17T03:11:49;99702.78;;;10.81;88.16
8229;BME280;4155;50.118;8.714;2022-09-17T03:14:17;99690.19;;;10.82;88.84
8229;BME280;4155;50.118;8.714;2022-09-17T03:16:46;99700.94;;;10.75;88.37
8229;BME280;4155;50.118;8.714;2022-09-17T03:19:14;99694.50;;;10.63;89.02
8229;BME280;4155;50.118;8.714;2022-09-17T03:21:43;99696.78;;;10.53;90.16
8229;BME280;4155;50.118;8.714;2022-09-17T03:24:11;99705.22;;;10.56;90.66
8229;BME280;4155;50.118;8.714;2022-09-17T03:26:38;99702.53;;;10.50;90.96
8229;BME280;4155;50.118;8.714;2022-09-17T03:29:06;99701.50;;;10.44;91.61
8229;BME280;4155;50.118;8.714;2022-09-17T03:31:34;99703.16;;;10.52;91.39
8229;BME280;4155;50.118;8.714;2022-09-17T03:34:01;99703.56;;;10.49;91.60
8229;BME280;4155;50.118;8.714;2022-09-17T03:36:29;99709.16;;;10.54;92.38
8229;BME280;4155;50.118;8.714;2022-09-17T03:38:59;99710.16;;;10.33;92.96
8229;BME280;4155;50.118;8.714;2022-09-17T03:41:27;99718.41;;;10.51;92.94
8229;BME280;4155;50.118;8.714;2022-09-17T03:43:57;99719.44;;;10.50;93.69
8229;BME280;4155;50.118;8.714;2022-09-17T03:46:25;99722.50;;;10.34;93.80
8229;BME280;4155;50.118;8.714;2022-09-17T03:48:55;99713.84;;;10.32;94.09
8229;BME280;4155;50.118;8.714;2022-09-17T03:51:22;99720.00;;;10.26;94.95
8229;BME280;4155;50.118;8.714;2022-09-17T03:53:50;99717.53;;;10.24;95.16
8229;BME280;4155;50.118;8.714;2022-09-17T03:56:19;99719.63;;;10.35;95.60
8229;BME280;4155;50.118;8.714;2022-09-17T03:58:46;99725.38;;;10.26;95.63
8229;BME280;4155;50.118;8.714;2022-09-17T04:01:14;99714.66;;;10.26;96.06
8229;BME280;4155;50.118;8.714;2022-09-17T04:03:42;99721.88;;;10.25;96.90
8229;BME280;4155;50.118;8.714;2022-09-17T04:06:11;99718.97;;;10.27;96.98
8229;BME280;4155;50.118;8.714;2022-09-17T04:08:38;99725.50;;;10.18;97.59
8229;BME280;4155;50.118;8.714;2022-09-17T04:11:06;99737.25;;;10.17;98.44
8229;BME280;4155;50.118;8.714;2022-09-17T04:13:35;99718.50;;;10.17;98.14
8229;BME280;4155;50.118;8.714;2022-09-17T04:16:04;99733.44;;;10.32;97.94
8229;BME280;4155;50.118;8.714;2022-09-17T04:18:32;99729.28;;;10.23;97.82
8229;BME280;4155;50.118;8.714;2022-09-17T04:21:00;99731.31;;;10.21;98.05
8229;BME280;4155;50.118;8.714;2022-09-17T04:23:29;99736.50;;;10.23;98.25
8229;BME280;4155;50.118;8.714;2022-09-17T04:25:56;99732.78;;;10.24;98.08
8229;BME280;4155;50.118;8.714;2022-09-17T04:28:24;99744.16;;;10.32;97.72
8229;BME280;4155;50.118;8.714;2022-09-17T04:30:53;99747.22;;;10.29;97.56
8229;BME280;4155;50.118;8.714;2022-09-17T04:33:20;99745.38;;;10.23;97.79
8229;BME280;4155;50.118;8.714;2022-09-17T04:35:48;99754.28;;;10.37;97.32
8229;BME280;4155;50.118;8.714;2022-09-17T04:38:16;99755.31;;;10.42;97.69
8229;BME280;4155;50.118;8.714;2022-09-17T04:40:45;99757.78;;;10.37;97.61
8229;BME280;4155;50.118;8.714;2022-09-17T04:43:13;99761.44;;;10.30;97.29
8229;BME280;4155;50.118;8.714;2022-09-17T04:45:44;99761.25;;;10.31;97.31
8229;BME280;4155;50.118;8.714;2022-09-17T04:48:13;99755.72;;;10.33;96.87
8229;BME280;4155;50.118;8.714;2022-09-17T04:50:41;99756.72;;;10.25;97.00
8229;BME280;4155;50.118;8.714;2022-09-17T04:53:08;99767.47;;;10.32;97.23
8229;BME280;4155;50.118;8.714;2022-09-17T04:55:36;99765.16;;;10.29;96.88
8229;BME280;4155;50.118;8.714;2022-09-17T04:58:04;99766.41;;;10.26;96.93
8229;BME280;4155;50.118;8.714;2022-09-17T05:00:32;99763.09;;;10.24;97.07
8229;BME280;4155;50.118;8.714;2022-09-17T05:03:03;99770.53;;;10.29;97.40
8229;BME280;4155;50.118;8.714;2022-09-17T05:05:34;99775.69;;;10.30;97.66
8229;BME280;4155;50.118;8.714;2022-09-17T05:08:01;99773.66;;;10.32;97.33
8229;BME280;4155;50.118;8.714;2022-09-17T05:10:30;99780.25;;;10.36;97.48
8229;BME280;4155;50.118;8.714;2022-09-17T05:12:59;99777.53;;;10.30;97.49
8229;BME280;4155;50.118;8.714;2022-09-17T05:15:27;99781.84;;;10.24;98.11
8229;BME280;4155;50.118;8.714;2022-09-17T05:17:55;99779.63;;;10.34;98.15
8229;BME280;4155;50.118;8.714;2022-09-17T05:20:22;99790.91;;;10.23;98.41
8229;BME280;4155;50.118;8.714;2022-09-17T05:22:51;99784.75;;;10.29;98.53
8229;BME280;4155;50.118;8.714;2022-09-17T05:25:20;99776.53;;;10.37;98.85
8229;BME280;4155;50.118;8.714;2022-09-17T05:27:49;99786.22;;;10.32;98.35
8229;BME280;4155;50.118;8.714;2022-09-17T05:30:17;99780.81;;;10.25;98.37
8229;BME280;4155;50.118;8.714;2022-09-17T05:32:45;99782.88;;;10.23;98.08
8229;BME280;4155;50.118;8.714;2022-09-17T05:35:13;99784.25;;;10.19;97.65
8229;BME280;4155;50.118;8.714;2022-09-17T05:37:41;99791.69;;;10.17;96.95
8229;BME280;4155;50.118;8.714;2022-09-17T05:40:10;99786.94;;;10.19;97.82
8229;BME280;4155;50.118;8.714;2022-09-17T05:42:38;99793.81;;;10.28;97.36
8229;BME280;4155;50.118;8.714;2022-09-17T05:45:07;99799.88;;;10.43;97.49
8229;BME280;4155;50.118;8.714;2022-09-17T05:47:34;99808.91;;;10.36;96.58
8229;BME280;4155;50.118;8.714;2022-09-17T05:50:02;99807.91;;;10.43;96.56
8229;BME280;4155;50.118;8.714;2022-09-17T05:52:30;99813.50;;;10.55;96.44
8229;BME280;4155;50.118;8.714;2022-09-17T05:54:58;99816.81;;;10.57;96.29
8229;BME280;4155;50.118;8.714;2022-09-17T05:57:28;99810.44;;;10.71;95.82
8229;BME280;4155;50.118;8.714;2022-09-17T05:59:56;99811.06;;;10.73;95.81
8229;BME280;4155;50.118;8.714;2022-09-17T06:02:24;99803.47;;;10.84;95.77
8229;BME280;4155;50.118;8.714;2022-09-17T06:04:52;99798.13;;;10.97;95.13
8229;BME280;4155;50.118;8.714;2022-09-17T06:07:19;99801.03;;;11.22;94.37
8229;BME280;4155;50.118;8.714;2022-09-17T06:09:47;99797.88;;;11.78;92.15
8229;BME280;4155;50.118;8.714;2022-09-17T06:12:14;99805.66;;;12.64;87.15
8229;BME280;4155;50.118;8.714;2022-09-17T06:14:43;99808.50;;;13.82;80.42
8229;BME280;4155;50.118;8.714;2022-09-17T06:17:11;99813.25;;;14.90;74.29
8229;BME280;4155;50.118;8.714;2022-09-17T06:19:39;99806.56;;;15.46;71.42
8229;BME280;4155;50.118;8.714;2022-09-17T06:22:06;99815.09;;;16.25;67.96
8229;BME280;4155;50.118;8.714;2022-09-17T06:24:34;99819.25;;;16.96;65.62
8229;BME280;4155;50.118;8.714;2022-09-17T06:27:02;99810.50;;;16.65;66.10
8229;BME280;4155;50.118;8.714;2022-09-17T06:29:30;99803.03;;;17.29;63.86
8229;BME280;4155;50.118;8.714;2022-09-17T06:31:59;99806.16;;;17.38;62.68
8229;BME280;4155;50.118;8.714;2022-09-17T06:34:28;99811.03;;;18.08;61.79
8229;BME280;4155;50.118;8.714;2022-09-17T06:36:55;99807.19;;;18.48;60.19
8229;BME280;4155;50.118;8.714;2022-09-17T06:39:23;99801.09;;;19.12;58.26
8229;BME280;4155;50.118;8.714;2022-09-17T06:41:51;99797.44;;;19.01;58.04
8229;BME280;4155;50.118;8.714;2022-09-17T06:44:18;99796.63;;;19.59;56.28
8229;BME280;4155;50.118;8.714;2022-09-17T06:46:48;99794.22;;;20.15;55.09
8229;BME280;4155;50.118;8.714;2022-09-17T06:49:18;99794.19;;;20.68;53.79
8229;BME280;4155;50.118;8.714;2022-09-17T06:51:45;99788.41;;;20.44;53.38
8229;BME280;4155;50.118;8.714;2022-09-17T06:54:13;99785.75;;;20.79;52.65
8229;BME280;4155;50.118;8.714;2022-09-17T06:56:40;99784.66;;;20.65;52.10
8229;BME280;4155;50.118;8.714;2022-09-17T06:59:08;99787.47;;;21.52;50.88
8229;BME280;4155;50.118;8.714;2022-09-17T07:01:35;99780.06;;;21.12;50.64
8229;BME280;4155;50.118;8.714;2022-09-17T07:04:03;99781.84;;;20.45;51.67
8229;BME280;4155;50.118;8.714;2022-09-17T07:06:32;99782.50;;;20.77;51.37
8229;BME280;4155;50.118;8.714;2022-09-17T07:09:00;99778.66;;;20.63;51.07
8229;BME280;4155;50.118;8.714;2022-09-17T07:11:28;99770.78;;;21.02;49.71
8229;BME280;4155;50.118;8.714;2022-09-17T07:13:56;99766.13;;;20.00;51.91
8229;BME280;4155;50.118;8.714;2022-09-17T07:16:24;99769.31;;;19.49;52.79
8229;BME280;4155;50.118;8.714;2022-09-17T07:18:53;99763.81;;;19.44;52.99
8229;BME280;4155;50.118;8.714;2022-09-17T07:21:21;99767.44;;;18.86;54.56
8229;BME280;4155;50.118;8.714;2022-09-17T07:23:50;99761.97;;;18.15;56.55
8229;BME280;4155;50.118;8.714;2022-09-17T07:26:18;99764.91;;;18.30;56.12
8229;BME280;4155;50.118;8.714;2022-09-17T07:28:46;99760.06;;;18.37;56.67
8229;BME280;4155;50.118;8.714;2022-09-17T07:31:14;99768.47;;;17.92;57.62
8229;BME280;4155;50.118;8.714;2022-09-17T07:33:42;99768.34;;;17.31;58.55
8229;BME280;4155;50.118;8.714;2022-09-17T07:36:11;99756.19;;;16.84;59.64
8229;BME280;4155;50.118;8.714;2022-09-17T07:38:40;99771.47;;;17.40;58.47
8229;BME280;4155;50.118;8.714;2022-09-17T07:41:10;99766.69;;;17.64;58.60
8229;BME280;4155;50.118;8.714;2022-09-17T07:43:40;99770.50;;;18.24;56.75
8229;BME280;4155;50.118;8.714;2022-09-17T07:46:12;99774.78;;;19.54;54.06
8229;BME280;4155;50.118;8.714;2022-09-17T07:48:40;99780.00;;;20.03;53.30
8229;BME280;4155;50.118;8.714;2022-09-17T07:51:14;99776.31;;;20.25;51.13
8229;BME280;4155;50.118;8.714;2022-09-17T07:53:41;99769.25;;;19.39;52.87
8229;BME280;4155;50.118;8.714;2022-09-17T07:56:11;99769.22;;;18.75;53.92
8229;BME280;4155;50.118;8.714;2022-09-17T07:58:39;99761.56;;;18.23;55.14
8229;BME280;4155;50.118;8.714;2022-09-17T08:01:11;99760.28;;;17.53;56.50
8229;BME280;4155;50.118;8.714;2022-09-17T08:03:41;99763.28;;;17.18;57.74
8229;BME280;4155;50.118;8.714;2022-09-17T08:06:10;99756.28;;;16.60;59.70
8229;BME280;4155;50.118;8.714;2022-09-17T08:08:39;99753.28;;;16.45;59.62
8229;BME280;4155;50.118;8.714;2022-09-17T08:11:08;99760.16;;;15.60;62.32
8229;BME280;4155;50.118;8.714;2022-09-17T08:13:38;99766.09;;;15.16;63.43
8229;BME280;4155;50.118;8.714;2022-09-17T08:16:07;99762.56;;;15.03;64.09
8229;BME280;4155;50.118;8.714;2022-09-17T08:18:36;99768.78;;;14.44;66.17
8229;BME280;4155;50.118;8.714;2022-09-17T08:21:05;99779.56;;;14.44;65.96
8229;BME280;4155;50.118;8.714;2022-09-17T08:23:35;99783.28;;;14.50;65.88
8229;BME280;4155;50.118;8.714;2022-09-17T08:26:04;99785.38;;;14.11;67.04
8229;BME280;4155;50.118;8.714;2022-09-17T08:28:34;99787.53;;;14.39;67.75
8229;BME280;4155;50.118;8.714;2022-09-17T08:31:05;99802.16;;;14.31;67.52
8229;BME280;4155;50.118;8.714;2022-09-17T08:33:35;99791.00;;;14.28;67.35
8229;BME280;4155;50.118;8.714;2022-09-17T08:36:04;99785.16;;;14.31;67.81
8229;BME280;4155;50.118;8.714;2022-09-17T08:38:33;99793.41;;;14.36;67.75
8229;BME280;4155;50.118;8.714;2022-09-17T08:41:17;99790.78;;;15.31;65.57
8229;BME280;4155;50.118;8.714;2022-09-17T08:43:50;99793.84;;;16.05;61.35
8229;BME280;4155;50.118;8.714;2022-09-17T08:46:25;99791.78;;;16.75;60.16
8229;BME280;4155;50.118;8.714;2022-09-17T08:48:58;99793.91;;;17.19;58.11
8229;BME280;4155;50.118;8.714;2022-09-17T08:51:37;99788.59;;;16.67;56.99
8229;BME280;4155;50.118;8.714;2022-09-17T08:54:13;99788.50;;;16.73;56.97
8229;BME280;4155;50.118;8.714;2022-09-17T08:56:44;99777.22;;;17.10;57.13
8229;BME280;4155;50.118;8.714;2022-09-17T08:59:19;99781.19;;;17.19;55.80
8229;BME280;4155;50.118;8.714;2022-09-17T09:01:58;99787.06;;;16.99;56.61
8229;BME280;4155;50.118;8.714;2022-09-17T09:04:52;99796.13;;;16.76;57.49
8229;BME280;4155;50.118;8.714;2022-09-17T09:07:26;99781.66;;;16.42;57.52
8229;BME280;4155;50.118;8.714;2022-09-17T09:10:05;99784.41;;;16.31;56.84
8229;BME280;4155;50.118;8.714;2022-09-17T09:12:38;99786.84;;;16.32;55.79
8229;BME280;4155;50.118;8.714;2022-09-17T09:15:17;99794.63;;;16.69;54.69
8229;BME280;4155;50.118;8.714;2022-09-17T09:17:50;99782.00;;;17.03;54.97
8229;BME280;4155;50.118;8.714;2022-09-17T09:20:24;99782.00;;;17.37;56.02
8229;BME280;4155;50.118;8.714;2022-09-17T09:22:59;99789.78;;;17.83;53.84
8229;BME280;4155;50.118;8.714;2022-09-17T09:25:31;99790.47;;;17.57;54.09
8229;BME280;4155;50.118;8.714;2022-09-17T09:28:09;99780.50;;;16.95;56.10
8229;BME280;4155;50.118;8.714;2022-09-17T09:30:59;99783.69;;;16.64;57.53
8229;BME280;4155;50.118;8.714;2022-09-17T09:33:38;99778.41;;;16.29;57.42
8229;BME280;4155;50.118;8.714;2022-09-17T09:36:15;99774.88;;;16.28;58.12
8229;BME280;4155;50.118;8.714;2022-09-17T09:38:50;99786.41;;;16.92;57.03
8229;BME280;4155;50.118;8.714;2022-09-17T09:41:25;99784.47;;;17.38;54.39
8229;BME280;4155;50.118;8.714;2022-09-17T09:44:00;99783.38;;;17.05;54.21
8229;BME280;4155;50.118;8.714;2022-09-17T09:46:52;99783.16;;;16.50;55.34
8229;BME280;4155;50.118;8.714;2022-09-17T09:49:48;99795.72;;;16.28;57.31
8229;BME280;4155;50.118;8.714;2022-09-17T09:52:31;99783.50;;;16.02;55.54
8229;BME280;4155;50.118;8.714;2022-09-17T09:55:14;99787.25;;;16.12;56.18
8229;BME280;4155;50.118;8.714;2022-09-17T09:57:54;99788.28;;;16.63;56.05
8229;BME280;4155;50.118;8.714;2022-09-17T10:00:29;99784.16;;;16.72;55.88
8229;BME280;4155;50.118;8.714;2022-09-17T10:03:02;99795.47;;;17.15;55.70
8229;BME280;4155;50.118;8.714;2022-09-17T10:05:32;99802.56;;;16.87;55.22
8229;BME280;4155;50.118;8.714;2022-09-17T10:08:10;99792.97;;;16.39;56.14
8229;BME280;4155;50.118;8.714;2022-09-17T10:10:52;99791.38;;;16.55;53.96
8229;BME280;4155;50.118;8.714;2022-09-17T10:13:23;99802.19;;;16.55;54.75
8229;BME280;4155;50.118;8.714;2022-09-17T10:15:55;99790.91;;;16.46;56.03
8229;BME280;4155;50.118;8.714;2022-09-17T10:18:34;99789.53;;;16.44;56.49
8229;BME280;4155;50.118;8.714;2022-09-17T10:21:18;99788.44;;;16.05;56.28
8229;BME280;4155;50.118;8.714;2022-09-17T10:23:46;99802.34;;;15.97;57.51
8229;BME280;4155;50.118;8.714;2022-09-17T10:26:21;99801.31;;;15.74;58.07
8229;BME280;4155;50.118;8.714;2022-09-17T10:28:52;99796.34;;;15.71;58.83
8229;BME280;4155;50.118;8.714;2022-09-17T10:31:21;99806.00;;;15.67;59.17
8229;BME280;4155;50.118;8.714;2022-09-17T10:33:52;99801.41;;;15.79;58.09
8229;BME280;4155;50.118;8.714;2022-09-17T10:36:41;99805.19;;;15.78;57.64
8229;BME280;4155;50.118;8.714;2022-09-17T10:39:28;99792.22;;;15.57;56.92
8229;BME280;4155;50.118;8.714;2022-09-17T10:41:58;99803.41;;;15.96;55.82
8229;BME280;4155;50.118;8.714;2022-09-17T10:44:27;99804.69;;;15.81;55.30
8229;BME280;4155;50.118;8.714;2022-09-17T10:47:02;99799.63;;;15.73;56.21
8229;BME280;4155;50.118;8.714;2022-09-17T10:49:35;99791.75;;;15.83;56.31
8229;BME280;4155;50.118;8.714;2022-09-17T10:52:11;99795.31;;;15.96;55.37
8229;BME280;4155;50.118;8.714;2022-09-17T10:55:00;99810.09;;;16.16;55.98
8229;BME280;4155;50.118;8.714;2022-09-17T10:57:51;99797.06;;;15.90;56.72
8229;BME280;4155;50.118;8.714;2022-09-17T11:00:29;99788.47;;;15.58;57.56
8229;BME280;4155;50.118;8.714;2022-09-17T11:06:19;99795.75;;;15.46;56.66
8229;BME280;4155;50.118;8.714;2022-09-17T11:09:01;99802.97;;;15.64;57.73
8229;BME280;4155;50.118;8.714;2022-09-17T11:11:41;99802.59;;;15.72;57.37
8229;BME280;4155;50.118;8.714;2022-09-17T11:14:23;99800.47;;;15.62;57.00
8229;BME280;4155;50.118;8.714;2022-09-17T11:17:06;99791.88;;;16.00;56.27
8229;BME280;4155;50.118;8.714;2022-09-17T11:19:44;99789.75;;;15.90;55.83
8229;BME280;4155;50.118;8.714;2022-09-17T11:22:21;99790.69;;;16.48;55.43
8229;BME280;4155;50.118;8.714;2022-09-17T11:25:00;99787.78;;;16.66;54.28
8229;BME280;4155;50.118;8.714;2022-09-17T11:27:37;99789.44;;;16.39;55.51
8229;BME280;4155;50.118;8.714;2022-09-17T11:30:16;99790.84;;;16.98;55.69
8229;BME280;4155;50.118;8.714;2022-09-17T11:32:53;99788.56;;;17.07;54.96
8229;BME280;4155;50.118;8.714;2022-09-17T11:35:27;99787.78;;;16.66;54.87
8229;BME280;4155;50.118;8.714;2022-09-17T11:38:00;99770.88;;;16.71;55.57
8229;BME280;4155;50.118;8.714;2022-09-17T11:40:36;99769.81;;;16.89;54.75
8229;BME280;4155;50.118;8.714;2022-09-17T11:43:14;99776.09;;;17.06;54.61
8229;BME280;4155;50.118;8.714;2022-09-17T11:45:51;99778.13;;;16.99;54.80
8229;BME280;4155;50.118;8.714;2022-09-17T11:48:27;99773.44;;;16.26;54.99
8229;BME280;4155;50.118;8.714;2022-09-17T11:51:03;99797.13;;;15.25;62.36
8229;BME280;4155;50.118;8.714;2022-09-17T11:53:36;99784.94;;;14.51;65.11
8229;BME280;4155;50.118;8.714;2022-09-17T11:56:14;99780.94;;;14.35;67.11
8229;BME280;4155;50.118;8.714;2022-09-17T11:58:47;99785.59;;;14.46;68.84
8229;BME280;4155;50.118;8.714;2022-09-17T12:01:20;99781.25;;;14.45;69.37
8229;BME280;4155;50.118;8.714;2022-09-17T12:03:56;99778.16;;;14.41;68.25
8229;BME280;4155;50.118;8.714;2022-09-17T12:06:32;99777.34;;;14.41;69.36
8229;BME280;4155;50.118;8.714;2022-09-17T12:09:08;99780.63;;;14.61;69.13
8229;BME280;4155;50.118;8.714;2022-09-17T12:11:41;99775.75;;;14.70;69.20
8229;BME280;4155;50.118;8.714;2022-09-17T12:14:15;99776.72;;;14.87;69.38
8229;BME280;4155;50.118;8.714;2022-09-17T12:16:46;99775.84;;;15.17;68.60
8229;BME280;4155;50.118;8.714;2022-09-17T12:19:20;99767.75;;;15.17;65.24
8229;BME280;4155;50.118;8.714;2022-09-17T12:21:53;99764.78;;;15.07;66.70
8229;BME280;4155;50.118;8.714;2022-09-17T12:24:23;99764.75;;;14.83;65.00
8229;BME280;4155;50.118;8.714;2022-09-17T12:30:03;99757.91;;;15.57;62.65
8229;BME280;4155;50.118;8.714;2022-09-17T12:32:43;99767.53;;;16.00;59.53
8229;BME280;4155;50.118;8.714;2022-09-17T12:35:25;99759.50;;;16.17;58.58
8229;BME280;4155;50.118;8.714;2022-09-17T12:38:28;99751.09;;;16.70;59.15
8229;BME280;4155;50.118;8.714;2022-09-17T12:41:06;99754.31;;;17.18;56.05
8229;BME280;4155;50.118;8.714;2022-09-17T12:43:54;99758.75;;;17.41;57.69
8229;BME280;4155;50.118;8.714;2022-09-17T12:46:40;99745.34;;;17.51;54.68
8229;BME280;4155;50.118;8.714;2022-09-17T12:49:31;99740.78;;;17.34;54.82
8229;BME280;4155;50.118;8.714;2022-09-17T12:52:07;99738.38;;;17.21;54.55
8229;BME280;4155;50.118;8.714;2022-09-17T12:54:53;99730.91;;;17.12;53.53
8229;BME280;4155;50.118;8.714;2022-09-17T12:57:31;99726.00;;;17.25;53.47
8229;BME280;4155;50.118;8.714;2022-09-17T13:00:04;99723.75;;;17.39;52.79
8229;BME280;4155;50.118;8.714;2022-09-17T13:02:38;99713.69;;;17.18;52.36
8229;BME280;4155;50.118;8.714;2022-09-17T13:08:28;99702.28;;;16.82;54.22
8229;BME280;4155;50.118;8.714;2022-09-17T13:14:26;99684.06;;;16.20;54.50
8229;BME280;4155;50.118;8.714;2022-09-17T13:17:03;99688.94;;;16.35;54.84
8229;BME280;4155;50.118;8.714;2022-09-17T13:19:37;99691.41;;;16.37;55.48
8229;BME280;4155;50.118;8.714;2022-09-17T13:22:12;99673.94;;;16.28;52.30
8229;BME280;4155;50.118;8.714;2022-09-17T13:24:43;99674.53;;;16.46;53.48
8229;BME280;4155;50.118;8.714;2022-09-17T13:27:20;99668.84;;;16.60;52.39
8229;BME280;4155;50.118;8.714;2022-09-17T13:29:59;99665.72;;;16.68;50.96
8229;BME280;4155;50.118;8.714;2022-09-17T13:32:46;99673.00;;;16.67;49.82
8229;BME280;4155;50.118;8.714;2022-09-17T13:35:48;99665.13;;;16.66;49.72
8229;BME280;4155;50.118;8.714;2022-09-17T13:38:17;99667.59;;;16.51;49.79
8229;BME280;4155;50.118;8.714;2022-09-17T13:40:50;99667.00;;;16.65;49.62
8229;BME280;4155;50.118;8.714;2022-09-17T13:43:21;99669.59;;;16.72;50.54
8229;BME280;4155;50.118;8.714;2022-09-17T13:46:10;99676.66;;;17.23;49.34
8229;BME280;4155;50.118;8.714;2022-09-17T13:48:49;99668.28;;;17.25;49.86
8229;BME280;4155;50.118;8.714;2022-09-17T13:51:52;99672.63;;;17.26;50.03
8229;BME280;4155;50.118;8.714;2022-09-17T13:54:21;99665.81;;;17.06;49.44
8229;BME280;4155;50.118;8.714;2022-09-17T13:57:08;99672.63;;;16.75;50.58
8229;BME280;4155;50.118;8.714;2022-09-17T13:59:36;99669.59;;;16.72;50.77
8229;BME280;4155;50.118;8.714;2022-09-17T14:02:34;99667.16;;;16.59;51.07
8229;BME280;4155;50.118;8.714;2022-09-17T14:05:31;99670.56;;;16.20;51.81
8229;BME280;4155;50.118;8.714;2022-09-17T14:08:12;99673.16;;;16.15;51.10
8229;BME280;4155;50.118;8.714;2022-09-17T14:10:42;99674.66;;;15.83;52.28